sensor_id;sensor_type;location;lat;lon;timestamp;pressure;altitude;pressure_sealevel;temperature;humidity
22214;BME280;11276;43.566;27.824;2022-12-07T00:01:22;99065.75;;;7.78;100.00
22214;BME280;11276;43.566;27.824;2022-12-07T00:03:51;99084.81;;;7.93;100.00
22214;BME280;11276;43.566;27.824;2022-12-07T00:06:20;99079.59;;;7.93;100.00
22214;BME280;11276;43.566;27.824;2022-12-07T00:08:47;99085.88;;;7.90;100.00
22214;BME280;11276;43.566;27.824;2022-12-07T00:11:16;99080.13;;;7.85;100.00
22214;BME280;11276;43.566;27.824;2022-12-07T00:13:43;99073.09;;;7.73;100.00
22214;BME280;11276;43.566;27.824;2022-12-07T00:18:37;99096.38;;;7.90;100.00
22214;BME280;11276;43.566;27.824;2022-12-07T00:21:12;99092.47;;;7.83;100.00
22214;BME280;11276;43.566;27.824;2022-12-07T00:23:41;99083.38;;;7.76;100.00
22214;BME280;11276;43.566;27.824;2022-12-07T00:26:10;99089.84;;;7.83;100.00
22214;BME280;11276;43.566;27.824;2022-12-07T00:28:38;99083.78;;;7.83;100.00
22214;BME280;11276;43.566;27.824;2022-12-07T00:31:08;99077.69;;;7.82;100.00
22214;BME280;11276;43.566;27.824;2022-12-07T00:33:36;99071.19;;;7.88;100.00
22214;BME280;11276;43.566;27.824;2022-12-07T00:36:06;99061.66;;;7.74;100.00
22214;BME280;11276;43.566;27.824;2022-12-07T00:38:34;99071.44;;;7.72;100.00
22214;BME280;11276;43.566;27.824;2022-12-07T00:41:03;99063.84;;;7.67;100.00
22214;BME280;11276;43.566;27.824;2022-12-07T00:43:31;99077.38;;;7.74;100.00
22214;BME280;11276;43.566;27.824;2022-12-07T00:45:58;99074.56;;;7.77;100.00
22214;BME280;11276;43.566;27.824;2022-12-07T00:48:24;99075.38;;;7.77;100.00
22214;BME280;11276;43.566;27.824;2022-12-07T00:50:51;99080.00;;;7.74;100.00
22214;BME280;11276;43.566;27.824;2022-12-07T00:53:18;99059.78;;;7.63;100.00
22214;BME280;11276;43.566;27.824;2022-12-07T00:55:45;99055.69;;;7.59;100.00
22214;BME280;11276;43.566;27.824;2022-12-07T00:58:12;99075.00;;;7.71;100.00
22214;BME280;11276;43.566;27.824;2022-12-07T01:00:41;99056.53;;;7.60;100.00
22214;BME280;11276;43.566;27.824;2022-12-07T01:03:10;99052.56;;;7.67;100.00
22214;BME280;11276;43.566;27.824;2022-12-07T01:05:38;99050.34;;;7.61;100.00
22214;BME280;11276;43.566;27.824;2022-12-07T01:08:05;99061.75;;;7.72;100.00
22214;BME280;11276;43.566;27.824;2022-12-07T01:10:32;99066.38;;;7.69;100.00
22214;BME280;11276;43.566;27.824;2022-12-07T01:12:58;99060.50;;;7.65;100.00
22214;BME280;11276;43.566;27.824;2022-12-07T01:15:25;99045.63;;;7.66;100.00
22214;BME280;11276;43.566;27.824;2022-12-07T01:17:53;99024.25;;;7.47;100.00
22214;BME280;11276;43.566;27.824;2022-12-07T01:20:21;99012.50;;;7.40;100.00
22214;BME280;11276;43.566;27.824;2022-12-07T01:22:48;99033.88;;;7.59;100.00
22214;BME280;11276;43.566;27.824;2022-12-07T01:25:15;99037.34;;;7.59;100.00
22214;BME280;11276;43.566;27.824;2022-12-07T01:27:41;99025.09;;;7.60;100.00
22214;BME280;11276;43.566;27.824;2022-12-07T01:30:10;99022.34;;;7.49;100.00
22214;BME280;11276;43.566;27.824;2022-12-07T01:32:36;99025.50;;;7.54;100.00
22214;BME280;11276;43.566;27.824;2022-12-07T01:35:03;99034.28;;;7.53;100.00
22214;BME280;11276;43.566;27.824;2022-12-07T01:37:38;99024.03;;;7.50;100.00
22214;BME280;11276;43.566;27.824;2022-12-07T01:40:06;99010.94;;;7.37;100.00
22214;BME280;11276;43.566;27.824;2022-12-07T01:42:34;99026.22;;;7.43;100.00
22214;BME280;11276;43.566;27.824;2022-12-07T01:47:59;99020.88;;;7.45;100.00
22214;BME280;11276;43.566;27.824;2022-12-07T01:50:27;99020.16;;;7.43;100.00
22214;BME280;11276;43.566;27.824;2022-12-07T01:52:59;99019.22;;;7.44;100.00
22214;BME280;11276;43.566;27.824;2022-12-07T01:55:27;99008.59;;;7.32;100.00
22214;BME280;11276;43.566;27.824;2022-12-07T01:57:55;99022.75;;;7.43;100.00
22214;BME280;11276;43.566;27.824;2022-12-07T02:00:22;99015.53;;;7.33;100.00
22214;BME280;11276;43.566;27.824;2022-12-07T02:02:59;99022.03;;;7.41;100.00
22214;BME280;11276;43.566;27.824;2022-12-07T02:05:28;99007.06;;;7.30;100.00
22214;BME280;11276;43.566;27.824;2022-12-07T02:07:56;99021.50;;;7.35;100.00
22214;BME280;11276;43.566;27.824;2022-12-07T02:10:29;99017.13;;;7.36;100.00
22214;BME280;11276;43.566;27.824;2022-12-07T02:13:20;99016.28;;;7.35;100.00
22214;BME280;11276;43.566;27.824;2022-12-07T02:16:13;99011.03;;;7.35;100.00
22214;BME280;11276;43.566;27.824;2022-12-07T02:18:45;99016.06;;;7.39;100.00
22214;BME280;11276;43.566;27.824;2022-12-07T02:21:34;99010.41;;;7.32;100.00
22214;BME280;11276;43.566;27.824;2022-12-07T02:27:25;99029.88;;;7.28;100.00
22214;BME280;11276;43.566;27.824;2022-12-07T02:30:16;99025.06;;;7.34;100.00
22214;BME280;11276;43.566;27.824;2022-12-07T02:33:04;99014.81;;;7.31;100.00
22214;BME280;11276;43.566;27.824;2022-12-07T02:38:20;99008.81;;;7.29;100.00
22214;BME280;11276;43.566;27.824;2022-12-07T02:41:02;99014.81;;;7.31;100.00
22214;BME280;11276;43.566;27.824;2022-12-07T02:43:39;98995.91;;;7.14;100.00
22214;BME280;11276;43.566;27.824;2022-12-07T02:46:11;99004.53;;;7.28;100.00
22214;BME280;11276;43.566;27.824;2022-12-07T02:48:41;98988.91;;;7.14;100.00
22214;BME280;11276;43.566;27.824;2022-12-07T02:51:09;98985.44;;;7.14;100.00
22214;BME280;11276;43.566;27.824;2022-12-07T02:53:38;98998.34;;;7.29;100.00
22214;BME280;11276;43.566;27.824;2022-12-07T03:07:23;98991.66;;;7.51;100.00
22214;BME280;11276;43.566;27.824;2022-12-07T03:10:00;98990.22;;;7.47;100.00
22214;BME280;11276;43.566;27.824;2022-12-07T03:12:37;98972.28;;;7.41;100.00
22214;BME280;11276;43.566;27.824;2022-12-07T03:15:18;98995.53;;;7.58;100.00
22214;BME280;11276;43.566;27.824;2022-12-07T03:17:47;98988.19;;;7.63;100.00
22214;BME280;11276;43.566;27.824;2022-12-07T03:20:19;98994.47;;;7.73;100.00
22214;BME280;11276;43.566;27.824;2022-12-07T03:22:47;98970.59;;;7.65;100.00
22214;BME280;11276;43.566;27.824;2022-12-07T03:25:15;98968.41;;;7.59;100.00
22214;BME280;11276;43.566;27.824;2022-12-07T03:27:57;98991.75;;;7.74;100.00
22214;BME280;11276;43.566;27.824;2022-12-07T03:30:33;98974.38;;;7.61;100.00
22214;BME280;11276;43.566;27.824;2022-12-07T03:33:13;98990.19;;;7.72;100.00
22214;BME280;11276;43.566;27.824;2022-12-07T03:36:30;98991.84;;;7.73;100.00
22214;BME280;11276;43.566;27.824;2022-12-07T03:39:29;98997.00;;;7.74;100.00
22214;BME280;11276;43.566;27.824;2022-12-07T03:41:59;98993.94;;;7.68;100.00
22214;BME280;11276;43.566;27.824;2022-12-07T03:44:28;98996.38;;;7.71;100.00
22214;BME280;11276;43.566;27.824;2022-12-07T03:49:48;98978.25;;;7.43;100.00
22214;BME280;11276;43.566;27.824;2022-12-07T03:55:00;98991.66;;;7.51;100.00
22214;BME280;11276;43.566;27.824;2022-12-07T03:57:30;98989.69;;;7.42;100.00
22214;BME280;11276;43.566;27.824;2022-12-07T03:59:59;98994.91;;;7.42;100.00
22214;BME280;11276;43.566;27.824;2022-12-07T04:02:27;98978.97;;;7.45;100.00
22214;BME280;11276;43.566;27.824;2022-12-07T04:04:55;98968.91;;;7.39;100.00
22214;BME280;11276;43.566;27.824;2022-12-07T04:07:22;98992.59;;;7.50;100.00
22214;BME280;11276;43.566;27.824;2022-12-07T04:09:49;98987.59;;;7.47;100.00
22214;BME280;11276;43.566;27.824;2022-12-07T04:12:16;98970.59;;;7.40;100.00
22214;BME280;11276;43.566;27.824;2022-12-07T04:14:42;98986.31;;;7.52;100.00
22214;BME280;11276;43.566;27.824;2022-12-07T04:17:09;98985.88;;;7.58;100.00
22214;BME280;11276;43.566;27.824;2022-12-07T04:19:36;98981.91;;;7.65;100.00
22214;BME280;11276;43.566;27.824;2022-12-07T04:22:04;98980.47;;;7.61;100.00
22214;BME280;11276;43.566;27.824;2022-12-07T04:24:31;98968.94;;;7.51;100.00
22214;BME280;11276;43.566;27.824;2022-12-07T04:26:58;98978.88;;;7.59;100.00
22214;BME280;11276;43.566;27.824;2022-12-07T04:29:25;98980.84;;;7.68;100.00
22214;BME280;11276;43.566;27.824;2022-12-07T04:31:52;98984.22;;;7.70;100.00
22214;BME280;11276;43.566;27.824;2022-12-07T04:34:19;98987.59;;;7.72;100.00
22214;BME280;11276;43.566;27.824;2022-12-07T04:36:47;98986.00;;;7.69;100.00
22214;BME280;11276;43.566;27.824;2022-12-07T04:39:23;98971.00;;;7.59;100.00
22214;BME280;11276;43.566;27.824;2022-12-07T04:41:51;98980.13;;;7.66;100.00
22214;BME280;11276;43.566;27.824;2022-12-07T04:44:18;98995.97;;;7.77;100.00
22214;BME280;11276;43.566;27.824;2022-12-07T04:46:45;98981.16;;;7.63;100.00
22214;BME280;11276;43.566;27.824;2022-12-07T04:49:13;98979.81;;;7.70;100.00
22214;BME280;11276;43.566;27.824;2022-12-07T04:51:40;98979.72;;;7.72;100.00
22214;BME280;11276;43.566;27.824;2022-12-07T04:54:07;99004.97;;;7.86;100.00
22214;BME280;11276;43.566;27.824;2022-12-07T04:56:34;99004.22;;;7.84;100.00
22214;BME280;11276;43.566;27.824;2022-12-07T04:59:02;99010.00;;;7.76;100.00
22214;BME280;11276;43.566;27.824;2022-12-07T05:01:29;98982.44;;;7.58;100.00
22214;BME280;11276;43.566;27.824;2022-12-07T05:03:56;98983.78;;;7.63;100.00
22214;BME280;11276;43.566;27.824;2022-12-07T05:06:23;98993.63;;;7.47;100.00
22214;BME280;11276;43.566;27.824;2022-12-07T05:08:50;98992.31;;;7.42;100.00
22214;BME280;11276;43.566;27.824;2022-12-07T05:11:17;99003.09;;;7.50;100.00
22214;BME280;11276;43.566;27.824;2022-12-07T05:14:04;98982.53;;;7.44;100.00
22214;BME280;11276;43.566;27.824;2022-12-07T05:16:31;98978.97;;;7.45;100.00
22214;BME280;11276;43.566;27.824;2022-12-07T05:18:58;99003.69;;;7.53;100.00
22214;BME280;11276;43.566;27.824;2022-12-07T05:21:25;98974.81;;;7.42;100.00
22214;BME280;11276;43.566;27.824;2022-12-07T05:23:52;98974.81;;;7.42;100.00
22214;BME280;11276;43.566;27.824;2022-12-07T05:26:18;98968.72;;;7.42;100.00
22214;BME280;11276;43.566;27.824;2022-12-07T05:28:50;98966.81;;;7.44;100.00
22214;BME280;11276;43.566;27.824;2022-12-07T05:31:17;98986.63;;;7.48;100.00
22214;BME280;11276;43.566;27.824;2022-12-07T05:33:44;98989.25;;;7.48;100.00
22214;BME280;11276;43.566;27.824;2022-12-07T05:36:10;98988.00;;;7.41;100.00
22214;BME280;11276;43.566;27.824;2022-12-07T05:38:37;98985.91;;;7.46;100.00
22214;BME280;11276;43.566;27.824;2022-12-07T05:41:05;98972.81;;;7.46;100.00
22214;BME280;11276;43.566;27.824;2022-12-07T05:43:33;98979.22;;;7.42;100.00
22214;BME280;11276;43.566;27.824;2022-12-07T05:46:00;98990.09;;;7.48;100.00
22214;BME280;11276;43.566;27.824;2022-12-07T05:48:26;98976.78;;;7.51;100.00
22214;BME280;11276;43.566;27.824;2022-12-07T05:50:53;98995.63;;;7.69;100.00
22214;BME280;11276;43.566;27.824;2022-12-07T05:53:20;98984.75;;;7.75;100.00
22214;BME280;11276;43.566;27.824;2022-12-07T05:55:48;98993.03;;;7.82;100.00
22214;BME280;11276;43.566;27.824;2022-12-07T05:58:15;98996.69;;;7.92;100.00
22214;BME280;11276;43.566;27.824;2022-12-07T06:01:00;98982.94;;;7.88;100.00
22214;BME280;11276;43.566;27.824;2022-12-07T06:03:26;98985.41;;;8.02;100.00
22214;BME280;11276;43.566;27.824;2022-12-07T06:05:53;99008.44;;;8.22;100.00
22214;BME280;11276;43.566;27.824;2022-12-07T06:08:20;99015.72;;;8.32;100.00
22214;BME280;11276;43.566;27.824;2022-12-07T06:10:47;98994.72;;;8.32;100.00
22214;BME280;11276;43.566;27.824;2022-12-07T06:13:34;99011.97;;;8.47;100.00
22214;BME280;11276;43.566;27.824;2022-12-07T06:16:01;99015.56;;;8.46;100.00
22214;BME280;11276;43.566;27.824;2022-12-07T06:18:28;99018.47;;;8.54;100.00
22214;BME280;11276;43.566;27.824;2022-12-07T06:20:55;99022.25;;;8.50;100.00
22214;BME280;11276;43.566;27.824;2022-12-07T06:23:21;99022.25;;;8.50;100.00
22214;BME280;11276;43.566;27.824;2022-12-07T06:25:48;99001.97;;;8.52;100.00
22214;BME280;11276;43.566;27.824;2022-12-07T06:28:15;99022.09;;;8.64;100.00
22214;BME280;11276;43.566;27.824;2022-12-07T06:30:41;99009.75;;;8.77;100.00
22214;BME280;11276;43.566;27.824;2022-12-07T06:33:08;99009.47;;;8.69;100.00
22214;BME280;11276;43.566;27.824;2022-12-07T06:35:35;99015.38;;;9.07;100.00
22214;BME280;11276;43.566;27.824;2022-12-07T06:38:01;99009.75;;;9.36;100.00
22214;BME280;11276;43.566;27.824;2022-12-07T06:40:28;99013.13;;;9.49;100.00
22214;BME280;11276;43.566;27.824;2022-12-07T06:42:55;99011.47;;;9.59;100.00
22214;BME280;11276;43.566;27.824;2022-12-07T06:45:21;98993.03;;;9.48;100.00
22214;BME280;11276;43.566;27.824;2022-12-07T06:47:48;99011.22;;;9.73;100.00
22214;BME280;11276;43.566;27.824;2022-12-07T06:50:15;99001.44;;;9.86;100.00
22214;BME280;11276;43.566;27.824;2022-12-07T06:52:41;99016.38;;;10.08;100.00
22214;BME280;11276;43.566;27.824;2022-12-07T06:55:08;99016.91;;;10.24;100.00
22214;BME280;11276;43.566;27.824;2022-12-07T06:57:35;98998.56;;;10.34;100.00
22214;BME280;11276;43.566;27.824;2022-12-07T07:00:03;99018.91;;;10.43;100.00
22214;BME280;11276;43.566;27.824;2022-12-07T07:02:30;99014.78;;;10.61;100.00
22214;BME280;11276;43.566;27.824;2022-12-07T07:04:57;99004.00;;;10.75;100.00
22214;BME280;11276;43.566;27.824;2022-12-07T07:07:23;99007.28;;;10.89;100.00
22214;BME280;11276;43.566;27.824;2022-12-07T07:09:50;99033.34;;;11.55;100.00
22214;BME280;11276;43.566;27.824;2022-12-07T07:12:17;99010.13;;;13.28;100.00
22214;BME280;11276;43.566;27.824;2022-12-07T07:14:43;99013.34;;;15.76;100.00
22214;BME280;11276;43.566;27.824;2022-12-07T07:17:10;99033.72;;;16.27;100.00
22214;BME280;11276;43.566;27.824;2022-12-07T07:19:37;99018.53;;;16.54;97.89
22214;BME280;11276;43.566;27.824;2022-12-07T07:22:04;99040.34;;;18.60;91.62
22214;BME280;11276;43.566;27.824;2022-12-07T07:24:30;99021.38;;;19.76;74.31
22214;BME280;11276;43.566;27.824;2022-12-07T07:26:57;99011.22;;;20.75;70.21
22214;BME280;11276;43.566;27.824;2022-12-07T07:29:24;99009.63;;;20.44;67.08
22214;BME280;11276;43.566;27.824;2022-12-07T07:31:50;99021.38;;;22.41;62.15
22214;BME280;11276;43.566;27.824;2022-12-07T07:34:17;99004.09;;;22.22;60.28
22214;BME280;11276;43.566;27.824;2022-12-07T07:36:44;99013.78;;;21.40;61.05
22214;BME280;11276;43.566;27.824;2022-12-07T07:39:11;99005.03;;;21.53;61.70
22214;BME280;11276;43.566;27.824;2022-12-07T07:41:39;98999.75;;;22.15;61.09
22214;BME280;11276;43.566;27.824;2022-12-07T07:44:05;98997.75;;;20.68;63.38
22214;BME280;11276;43.566;27.824;2022-12-07T07:46:32;99012.81;;;19.81;66.70
22214;BME280;11276;43.566;27.824;2022-12-07T07:48:59;99003.59;;;19.23;68.14
22214;BME280;11276;43.566;27.824;2022-12-07T07:51:26;99002.38;;;18.58;72.92
22214;BME280;11276;43.566;27.824;2022-12-07T07:53:52;99009.69;;;18.56;74.03
22214;BME280;11276;43.566;27.824;2022-12-07T07:56:19;99002.94;;;17.41;78.79
22214;BME280;11276;43.566;27.824;2022-12-07T07:58:46;98990.28;;;17.27;81.17
22214;BME280;11276;43.566;27.824;2022-12-07T08:01:13;99007.00;;;16.63;81.95
22214;BME280;11276;43.566;27.824;2022-12-07T08:03:39;98996.13;;;16.14;86.18
22214;BME280;11276;43.566;27.824;2022-12-07T08:06:06;99008.97;;;16.19;86.33
22214;BME280;11276;43.566;27.824;2022-12-07T08:08:33;98995.72;;;16.01;87.39
22214;BME280;11276;43.566;27.824;2022-12-07T08:11:00;99023.53;;;16.15;87.34
22214;BME280;11276;43.566;27.824;2022-12-07T08:13:29;99015.63;;;15.97;88.45
22214;BME280;11276;43.566;27.824;2022-12-07T08:15:56;98998.53;;;15.30;91.79
22214;BME280;11276;43.566;27.824;2022-12-07T08:18:23;99014.00;;;14.82;94.13
22214;BME280;11276;43.566;27.824;2022-12-07T08:20:49;99022.88;;;14.36;97.56
22214;BME280;11276;43.566;27.824;2022-12-07T08:23:16;99001.31;;;13.57;100.00
22214;BME280;11276;43.566;27.824;2022-12-07T08:25:43;99018.31;;;13.45;100.00
22214;BME280;11276;43.566;27.824;2022-12-07T08:28:09;99020.13;;;13.34;100.00
22214;BME280;11276;43.566;27.824;2022-12-07T08:30:36;99001.59;;;13.06;100.00
22214;BME280;11276;43.566;27.824;2022-12-07T08:33:03;98988.78;;;13.01;100.00
22214;BME280;11276;43.566;27.824;2022-12-07T08:35:33;99009.25;;;12.99;100.00
22214;BME280;11276;43.566;27.824;2022-12-07T08:38:00;99018.56;;;12.84;100.00
22214;BME280;11276;43.566;27.824;2022-12-07T08:40:28;98998.19;;;12.56;100.00
22214;BME280;11276;43.566;27.824;2022-12-07T08:42:55;99002.34;;;12.39;100.00
22214;BME280;11276;43.566;27.824;2022-12-07T08:45:22;99010.09;;;12.31;100.00
22214;BME280;11276;43.566;27.824;2022-12-07T08:47:57;99002.31;;;12.29;100.00
22214;BME280;11276;43.566;27.824;2022-12-07T08:50:28;99007.53;;;12.10;100.00
22214;BME280;11276;43.566;27.824;2022-12-07T08:52:57;98984.72;;;11.99;100.00
22214;BME280;11276;43.566;27.824;2022-12-07T08:55:24;98994.41;;;11.69;100.00
22214;BME280;11276;43.566;27.824;2022-12-07T08:57:52;98993.38;;;11.81;100.00
22214;BME280;11276;43.566;27.824;2022-12-07T09:00:19;98978.53;;;11.80;100.00
22214;BME280;11276;43.566;27.824;2022-12-07T09:02:46;98982.81;;;11.81;100.00
22214;BME280;11276;43.566;27.824;2022-12-07T09:05:13;99000.94;;;11.95;100.00
22214;BME280;11276;43.566;27.824;2022-12-07T09:07:44;98994.44;;;11.99;100.00
22214;BME280;11276;43.566;27.824;2022-12-07T09:10:12;98999.66;;;12.20;100.00
22214;BME280;11276;43.566;27.824;2022-12-07T09:12:39;98992.72;;;12.28;100.00
22214;BME280;11276;43.566;27.824;2022-12-07T09:15:06;98970.34;;;12.23;100.00
22214;BME280;11276;43.566;27.824;2022-12-07T09:17:33;98965.91;;;12.23;100.00
22214;BME280;11276;43.566;27.824;2022-12-07T09:20:00;98965.13;;;12.51;100.00
22214;BME280;11276;43.566;27.824;2022-12-07T09:22:30;98966.69;;;12.73;100.00
22214;BME280;11276;43.566;27.824;2022-12-07T09:24:58;98964.59;;;12.96;100.00
22214;BME280;11276;43.566;27.824;2022-12-07T09:27:25;98966.56;;;13.13;100.00
22214;BME280;11276;43.566;27.824;2022-12-07T09:29:53;98968.25;;;13.14;100.00
22214;BME280;11276;43.566;27.824;2022-12-07T09:32:20;98943.06;;;13.29;100.00
22214;BME280;11276;43.566;27.824;2022-12-07T09:34:47;98946.06;;;13.54;100.00
22214;BME280;11276;43.566;27.824;2022-12-07T09:37:14;98940.81;;;13.34;100.00
22214;BME280;11276;43.566;27.824;2022-12-07T09:39:41;98963.28;;;13.58;100.00
22214;BME280;11276;43.566;27.824;2022-12-07T09:42:41;98957.56;;;13.62;100.00
22214;BME280;11276;43.566;27.824;2022-12-07T09:45:10;98961.94;;;13.81;100.00
22214;BME280;11276;43.566;27.824;2022-12-07T09:47:38;98966.00;;;13.75;100.00
22214;BME280;11276;43.566;27.824;2022-12-07T09:52:44;98952.72;;;13.58;100.00
22214;BME280;11276;43.566;27.824;2022-12-07T09:55:19;98943.69;;;13.41;100.00
22214;BME280;11276;43.566;27.824;2022-12-07T09:57:49;98948.13;;;13.50;100.00
22214;BME280;11276;43.566;27.824;2022-12-07T10:00:19;98942.03;;;13.30;100.00
22214;BME280;11276;43.566;27.824;2022-12-07T10:05:29;98914.25;;;13.17;100.00
22214;BME280;11276;43.566;27.824;2022-12-07T10:07:56;98914.19;;;13.46;100.00
22214;BME280;11276;43.566;27.824;2022-12-07T10:10:32;98929.22;;;13.55;100.00
22214;BME280;11276;43.566;27.824;2022-12-07T10:13:03;98928.69;;;13.32;100.00
22214;BME280;11276;43.566;27.824;2022-12-07T10:18:31;98926.19;;;13.30;100.00
22214;BME280;11276;43.566;27.824;2022-12-07T10:23:37;98922.75;;;12.82;100.00
22214;BME280;11276;43.566;27.824;2022-12-07T10:26:28;98925.94;;;12.57;100.00
22214;BME280;11276;43.566;27.824;2022-12-07T10:28:59;98923.69;;;12.42;100.00
22214;BME280;11276;43.566;27.824;2022-12-07T10:31:26;98903.94;;;12.27;100.00
22214;BME280;11276;43.566;27.824;2022-12-07T10:34:00;98892.50;;;11.98;100.00
22214;BME280;11276;43.566;27.824;2022-12-07T10:36:38;98911.50;;;11.92;100.00
22214;BME280;11276;43.566;27.824;2022-12-07T10:39:17;98888.28;;;11.86;100.00
22214;BME280;11276;43.566;27.824;2022-12-07T10:42:03;98909.47;;;12.05;100.00
22214;BME280;11276;43.566;27.824;2022-12-07T10:44:32;98904.44;;;12.02;100.00
22214;BME280;11276;43.566;27.824;2022-12-07T10:55:29;98882.84;;;12.46;100.00
22214;BME280;11276;43.566;27.824;2022-12-07T11:03:46;98871.72;;;12.62;100.00
22214;BME280;11276;43.566;27.824;2022-12-07T11:12:57;98869.50;;;12.38;100.00
22214;BME280;11276;43.566;27.824;2022-12-07T11:15:31;98869.50;;;12.58;100.00
22214;BME280;11276;43.566;27.824;2022-12-07T11:18:14;98872.03;;;12.49;100.00
22214;BME280;11276;43.566;27.824;2022-12-07T11:34:44;98871.59;;;12.44;100.00
22214;BME280;11276;43.566;27.824;2022-12-07T11:37:17;98868.25;;;12.42;100.00
22214;BME280;11276;43.566;27.824;2022-12-07T11:39:50;98862.56;;;12.47;100.00
22214;BME280;11276;43.566;27.824;2022-12-07T11:45:02;98867.28;;;12.43;100.00
22214;BME280;11276;43.566;27.824;2022-12-07T11:47:52;98861.16;;;12.52;100.00
22214;BME280;11276;43.566;27.824;2022-12-07T11:50:54;98850.91;;;12.30;100.00
22214;BME280;11276;43.566;27.824;2022-12-07T11:53:33;98824.88;;;12.06;100.00
22214;BME280;11276;43.566;27.824;2022-12-07T11:56:12;98847.00;;;12.15;100.00
22214;BME280;11276;43.566;27.824;2022-12-07T11:59:02;98846.00;;;12.16;100.00
22214;BME280;11276;43.566;27.824;2022-12-07T12:06:44;98824.72;;;11.89;100.00
22214;BME280;11276;43.566;27.824;2022-12-07T12:09:27;98839.44;;;11.91;100.00
22214;BME280;11276;43.566;27.824;2022-12-07T12:12:40;98826.66;;;11.96;100.00
22214;BME280;11276;43.566;27.824;2022-12-07T12:20:53;98811.25;;;11.92;100.00
22214;BME280;11276;43.566;27.824;2022-12-07T12:23:43;98826.91;;;11.74;100.00
22214;BME280;11276;43.566;27.824;2022-12-07T12:26:20;98808.53;;;11.63;100.00
22214;BME280;11276;43.566;27.824;2022-12-07T12:28:54;98822.97;;;11.69;100.00
22214;BME280;11276;43.566;27.824;2022-12-07T12:33:54;98798.19;;;11.81;100.00
22214;BME280;11276;43.566;27.824;2022-12-07T12:36:48;98802.78;;;11.79;100.00
22214;BME280;11276;43.566;27.824;2022-12-07T12:39:16;98823.19;;;11.86;100.00
22214;BME280;11276;43.566;27.824;2022-12-07T12:46:51;98822.03;;;11.70;100.00
22214;BME280;11276;43.566;27.824;2022-12-07T12:51:52;98821.19;;;11.69;100.00
22214;BME280;11276;43.566;27.824;2022-12-07T12:54:23;98821.38;;;11.77;100.00
22214;BME280;11276;43.566;27.824;2022-12-07T12:57:15;98817.75;;;11.78;100.00
22214;BME280;11276;43.566;27.824;2022-12-07T13:02:30;98799.38;;;11.67;100.00
22214;BME280;11276;43.566;27.824;2022-12-07T13:15:38;98817.22;;;11.84;100.00
22214;BME280;11276;43.566;27.824;2022-12-07T13:20:46;98792.19;;;11.69;100.00
22214;BME280;11276;43.566;27.824;2022-12-07T13:23:18;98811.00;;;11.85;100.00
22214;BME280;11276;43.566;27.824;2022-12-07T13:33:47;98811.03;;;11.55;100.00
22214;BME280;11276;43.566;27.824;2022-12-07T13:36:24;98814.44;;;11.46;100.00
22214;BME280;11276;43.566;27.824;2022-12-07T13:39:00;98813.72;;;11.34;100.00
22214;BME280;11276;43.566;27.824;2022-12-07T13:41:28;98795.38;;;11.23;100.00
22214;BME280;11276;43.566;27.824;2022-12-07T13:44:12;98818.81;;;11.26;100.00
22214;BME280;11276;43.566;27.824;2022-12-07T13:46:44;98817.25;;;11.14;100.00
22214;BME280;11276;43.566;27.824;2022-12-07T13:49:47;98808.63;;;11.12;100.00
22214;BME280;11276;43.566;27.824;2022-12-07T13:52:26;98811.13;;;11.13;100.00
22214;BME280;11276;43.566;27.824;2022-12-07T13:57:28;98801.63;;;11.01;100.00
22214;BME280;11276;43.566;27.824;2022-12-07T13:59:57;98801.34;;;10.95;100.00
22214;BME280;11276;43.566;27.824;2022-12-07T14:02:34;98822.03;;;10.78;100.00
22214;BME280;11276;43.566;27.824;2022-12-07T14:12:57;98803.94;;;10.64;100.00
22214;BME280;11276;43.566;27.824;2022-12-07T14:15:30;98813.69;;;10.73;100.00
22214;BME280;11276;43.566;27.824;2022-12-07T14:17:59;98806.13;;;10.59;100.00
22214;BME280;11276;43.566;27.824;2022-12-07T14:22:57;98788.78;;;10.36;100.00
22214;BME280;11276;43.566;27.824;2022-12-07T14:25:27;98784.34;;;10.36;100.00
22214;BME280;11276;43.566;27.824;2022-12-07T14:28:00;98801.88;;;10.47;100.00
22214;BME280;11276;43.566;27.824;2022-12-07T14:30:32;98791.53;;;10.34;100.00
22214;BME280;11276;43.566;27.824;2022-12-07T14:33:02;98793.06;;;10.37;100.00
22214;BME280;11276;43.566;27.824;2022-12-07T14:35:30;98810.53;;;10.38;100.00
22214;BME280;11276;43.566;27.824;2022-12-07T14:37:58;98799.47;;;10.23;100.00
22214;BME280;11276;43.566;27.824;2022-12-07T14:40:27;98804.47;;;10.26;100.00
22214;BME280;11276;43.566;27.824;2022-12-07T14:42:59;98807.00;;;10.28;100.00
22214;BME280;11276;43.566;27.824;2022-12-07T14:45:27;98798.41;;;10.26;100.00
22214;BME280;11276;43.566;27.824;2022-12-07T14:47:54;98814.19;;;10.26;100.00
22214;BME280;11276;43.566;27.824;2022-12-07T14:50:44;98783.84;;;10.11;100.00
22214;BME280;11276;43.566;27.824;2022-12-07T14:53:35;98817.16;;;10.21;100.00
22214;BME280;11276;43.566;27.824;2022-12-07T14:56:03;98797.34;;;10.06;100.00
22214;BME280;11276;43.566;27.824;2022-12-07T14:58:32;98813.28;;;10.16;100.00
22214;BME280;11276;43.566;27.824;2022-12-07T15:00:59;98813.47;;;10.13;100.00
22214;BME280;11276;43.566;27.824;2022-12-07T15:03:26;98810.00;;;10.12;100.00
22214;BME280;11276;43.566;27.824;2022-12-07T15:05:53;98797.03;;;10.00;100.00
22214;BME280;11276;43.566;27.824;2022-12-07T15:08:20;98811.34;;;10.07;100.00
22214;BME280;11276;43.566;27.824;2022-12-07T15:10:46;98811.22;;;10.08;100.00
22214;BME280;11276;43.566;27.824;2022-12-07T15:13:13;98821.63;;;10.10;100.00
22214;BME280;11276;43.566;27.824;2022-12-07T15:15:59;98808.50;;;9.99;100.00
22214;BME280;11276;43.566;27.824;2022-12-07T15:18:26;98835.00;;;10.07;100.00